PAL106 RPMR-RPLL
Flight info
| Callsign | PAL106 |
|---|---|
| Flight time | 1h 38m |
| Altitude | 40000 |
| Route | LATIA4R LATIA W6 LUMVI B473 LAIYA LAIYA3P |
| Aircraft | A359/H-SDE2E3GHIJ3J4J5LM1ORWXY/LB1D1 |
Departure
| Time | 2026-04-16 09:50 |
|---|---|
| Airport | General Santos International Airport (RPMR) |
Arrival
| Time | 2026-04-16 11:28 |
|---|---|
| Airport | Ninoy Aquino International Airport (RPLL) |
| Time | Latitude | Longitude | Altitude | Speed | Heading |
|---|---|---|---|---|---|
| 2026-04-16 09:30 | 6.05713 | 125.09949 | 520 ft | 0 kts | 82° |
| 2026-04-16 09:42 | 6.05713 | 125.09952 | 520 ft | 1 kts | 87° |
| 2026-04-16 09:42 | 6.05708 | 125.09957 | 520 ft | 1 kts | 129° |
| 2026-04-16 09:42 | 6.05698 | 125.09956 | 520 ft | 1 kts | 186° |
| 2026-04-16 09:42 | 6.05694 | 125.09947 | 520 ft | 1 kts | 241° |
| 2026-04-16 09:43 | 6.05694 | 125.09920 | 520 ft | 6 kts | 284° |
| 2026-04-16 09:43 | 6.05740 | 125.09881 | 520 ft | 10 kts | 339° |
| 2026-04-16 09:43 | 6.05746 | 125.09880 | 520 ft | 0 kts | 345° |
| 2026-04-16 09:45 | 6.05782 | 125.09872 | 520 ft | 18 kts | 351° |
| 2026-04-16 09:45 | 6.05809 | 125.09863 | 520 ft | 0 kts | 326° |
| 2026-04-16 09:45 | 6.05809 | 125.09862 | 520 ft | 1 kts | 320° |
| 2026-04-16 09:45 | 6.05828 | 125.09829 | 520 ft | 10 kts | 291° |
| 2026-04-16 09:46 | 6.05825 | 125.09726 | 520 ft | 19 kts | 263° |
| 2026-04-16 09:46 | 6.05828 | 125.09627 | 520 ft | 13 kts | 304° |
| 2026-04-16 09:46 | 6.05905 | 125.09607 | 520 ft | 17 kts | 353° |
| 2026-04-16 09:46 | 6.06080 | 125.09585 | 521 ft | 33 kts | 353° |
| 2026-04-16 09:47 | 6.06356 | 125.09551 | 521 ft | 47 kts | 353° |
| 2026-04-16 09:47 | 6.06629 | 125.09518 | 522 ft | 33 kts | 353° |
| 2026-04-16 09:47 | 6.06903 | 125.09484 | 519 ft | 41 kts | 353° |
| 2026-04-16 09:47 | 6.07100 | 125.09464 | 519 ft | 12 kts | 9° |
| 2026-04-16 09:48 | 6.07124 | 125.09484 | 519 ft | 10 kts | 58° |
| 2026-04-16 09:48 | 6.07134 | 125.09514 | 519 ft | 16 kts | 77° |
| 2026-04-16 09:48 | 6.07148 | 125.09583 | 519 ft | 17 kts | 70° |
| 2026-04-16 09:48 | 6.07216 | 125.09612 | 519 ft | 11 kts | 348° |
| 2026-04-16 09:49 | 6.07256 | 125.09526 | 519 ft | 11 kts | 265° |
| 2026-04-16 09:49 | 6.07204 | 125.09450 | 518 ft | 16 kts | 189° |
| 2026-04-16 09:49 | 6.07007 | 125.09470 | 519 ft | 51 kts | 173° |
| 2026-04-16 09:49 | 6.06461 | 125.09539 | 522 ft | 105 kts | 173° |
| 2026-04-16 09:50 | 6.05571 | 125.09648 | 519 ft | 151 kts | 173° |
| 2026-04-16 09:50 | 6.04471 | 125.09797 | 844 ft | 161 kts | 173° |
| 2026-04-16 09:50 | 6.03399 | 125.10018 | 1391 ft | 156 kts | 160° |
| 2026-04-16 09:50 | 6.02548 | 125.10669 | 1814 ft | 165 kts | 122° |
| 2026-04-16 09:51 | 6.02326 | 125.11882 | 1906 ft | 196 kts | 77° |
| 2026-04-16 09:51 | 6.03125 | 125.13065 | 2080 ft | 221 kts | 34° |
| 2026-04-16 09:51 | 6.04575 | 125.13711 | 2356 ft | 243 kts | 18° |
| 2026-04-16 09:51 | 6.06258 | 125.14269 | 2591 ft | 259 kts | 19° |
| 2026-04-16 09:52 | 6.07833 | 125.14835 | 2889 ft | 269 kts | 21° |
| 2026-04-16 09:52 | 6.09645 | 125.15528 | 3394 ft | 273 kts | 21° |
| 2026-04-16 09:52 | 6.11415 | 125.16227 | 3922 ft | 273 kts | 22° |
| 2026-04-16 09:52 | 6.13188 | 125.16938 | 4502 ft | 273 kts | 22° |
| 2026-04-16 09:53 | 6.14954 | 125.17652 | 5074 ft | 273 kts | 21° |
| 2026-04-16 09:53 | 6.16717 | 125.18369 | 5632 ft | 273 kts | 21° |
| 2026-04-16 09:53 | 6.18496 | 125.19056 | 6155 ft | 274 kts | 19° |
| 2026-04-16 09:53 | 6.20264 | 125.19709 | 6652 ft | 274 kts | 19° |
| 2026-04-16 09:54 | 6.22066 | 125.20378 | 7132 ft | 276 kts | 19° |
| 2026-04-16 09:54 | 6.23877 | 125.21056 | 7595 ft | 279 kts | 19° |
| 2026-04-16 09:54 | 6.25702 | 125.21743 | 8066 ft | 281 kts | 20° |
| 2026-04-16 09:54 | 6.27539 | 125.22435 | 8537 ft | 283 kts | 20° |
| 2026-04-16 09:55 | 6.29394 | 125.23136 | 9017 ft | 285 kts | 20° |
| 2026-04-16 09:55 | 6.31254 | 125.23839 | 9500 ft | 287 kts | 20° |
| 2026-04-16 09:55 | 6.33133 | 125.24550 | 9971 ft | 289 kts | 20° |
| 2026-04-16 09:55 | 6.35028 | 125.25266 | 10194 ft | 300 kts | 20° |
| 2026-04-16 09:56 | 6.37022 | 125.26019 | 10372 ft | 312 kts | 20° |
| 2026-04-16 09:56 | 6.39093 | 125.26803 | 10551 ft | 324 kts | 20° |
| 2026-04-16 09:56 | 6.41241 | 125.27585 | 10724 ft | 335 kts | 17° |
| 2026-04-16 09:56 | 6.43572 | 125.27954 | 10859 ft | 345 kts | 358° |
| 2026-04-16 09:57 | 6.45945 | 125.27462 | 11007 ft | 355 kts | 337° |
| 2026-04-16 09:57 | 6.48071 | 125.26149 | 11188 ft | 364 kts | 322° |
| 2026-04-16 09:57 | 6.50071 | 125.24527 | 11396 ft | 372 kts | 321° |
| 2026-04-16 09:57 | 6.52094 | 125.22876 | 11706 ft | 377 kts | 321° |
| 2026-04-16 09:58 | 6.54147 | 125.21217 | 12061 ft | 380 kts | 322° |
| 2026-04-16 09:58 | 6.56225 | 125.19547 | 12390 ft | 383 kts | 322° |
| 2026-04-16 09:58 | 6.58322 | 125.17868 | 12731 ft | 386 kts | 322° |
| 2026-04-16 09:58 | 6.60438 | 125.16181 | 13047 ft | 389 kts | 322° |
| 2026-04-16 09:59 | 6.62572 | 125.14479 | 13381 ft | 392 kts | 322° |
| 2026-04-16 09:59 | 6.64688 | 125.12789 | 13703 ft | 395 kts | 322° |
| 2026-04-16 09:59 | 6.66845 | 125.11069 | 13994 ft | 397 kts | 322° |
| 2026-04-16 09:59 | 6.69020 | 125.09322 | 14281 ft | 400 kts | 321° |
| 2026-04-16 10:00 | 6.71197 | 125.07574 | 14580 ft | 402 kts | 321° |
| 2026-04-16 10:00 | 6.73396 | 125.05809 | 14873 ft | 404 kts | 321° |
| 2026-04-16 10:00 | 6.75594 | 125.04047 | 15154 ft | 406 kts | 321° |
| 2026-04-16 10:01 | 6.80053 | 125.00473 | 15742 ft | 411 kts | 321° |
| 2026-04-16 10:01 | 6.82296 | 124.98676 | 16026 ft | 413 kts | 322° |
| 2026-04-16 10:01 | 6.84552 | 124.96872 | 16306 ft | 415 kts | 321° |
| 2026-04-16 10:01 | 6.86792 | 124.95075 | 16594 ft | 417 kts | 321° |
| 2026-04-16 10:02 | 6.89112 | 124.93296 | 16855 ft | 420 kts | 326° |
| 2026-04-16 10:02 | 6.91711 | 124.91960 | 17112 ft | 422 kts | 341° |
| 2026-04-16 10:02 | 6.94531 | 124.91124 | 17396 ft | 424 kts | 346° |
| 2026-04-16 10:02 | 6.97577 | 124.90444 | 17667 ft | 427 kts | 348° |
| 2026-04-16 10:03 | 7.00349 | 124.89911 | 17913 ft | 429 kts | 349° |
| 2026-04-16 10:03 | 7.03290 | 124.89367 | 18186 ft | 431 kts | 349° |
| 2026-04-16 10:03 | 7.06241 | 124.88814 | 18415 ft | 432 kts | 349° |
| 2026-04-16 10:03 | 7.09203 | 124.88240 | 18631 ft | 434 kts | 348° |
| 2026-04-16 10:04 | 7.12174 | 124.87647 | 18862 ft | 436 kts | 348° |
| 2026-04-16 10:04 | 7.15168 | 124.87037 | 19092 ft | 437 kts | 348° |
| 2026-04-16 10:04 | 7.18151 | 124.86423 | 19317 ft | 439 kts | 348° |
| 2026-04-16 10:04 | 7.21144 | 124.85803 | 19537 ft | 440 kts | 348° |
| 2026-04-16 10:05 | 7.24159 | 124.85179 | 19751 ft | 442 kts | 348° |
| 2026-04-16 10:05 | 7.27172 | 124.84556 | 19979 ft | 443 kts | 348° |
| 2026-04-16 10:05 | 7.30196 | 124.83931 | 20196 ft | 445 kts | 348° |
| 2026-04-16 10:05 | 7.33238 | 124.83303 | 20426 ft | 446 kts | 348° |
| 2026-04-16 10:06 | 7.36255 | 124.82681 | 20627 ft | 448 kts | 348° |
| 2026-04-16 10:06 | 7.39312 | 124.82051 | 20841 ft | 449 kts | 348° |
| 2026-04-16 10:06 | 7.42389 | 124.81416 | 21056 ft | 451 kts | 348° |
| 2026-04-16 10:06 | 7.45470 | 124.80781 | 21258 ft | 452 kts | 348° |
| 2026-04-16 10:07 | 7.48559 | 124.80145 | 21486 ft | 453 kts | 348° |
| 2026-04-16 10:07 | 7.51656 | 124.79506 | 21716 ft | 455 kts | 348° |
| 2026-04-16 10:07 | 7.54762 | 124.78865 | 21902 ft | 456 kts | 348° |
| 2026-04-16 10:07 | 7.56829 | 124.78438 | 22048 ft | 457 kts | 348° |
| 2026-04-16 10:08 | 7.59944 | 124.77796 | 22253 ft | 458 kts | 348° |
| 2026-04-16 10:08 | 7.64098 | 124.76939 | 22524 ft | 460 kts | 348° |
| 2026-04-16 10:08 | 7.67279 | 124.76283 | 22729 ft | 462 kts | 348° |
| 2026-04-16 10:08 | 7.70392 | 124.75640 | 22918 ft | 464 kts | 348° |
| 2026-04-16 10:09 | 7.72532 | 124.75198 | 23054 ft | 465 kts | 348° |
| 2026-04-16 10:09 | 7.75662 | 124.74552 | 23252 ft | 466 kts | 348° |
| 2026-04-16 10:09 | 7.78844 | 124.73895 | 23443 ft | 467 kts | 348° |
| 2026-04-16 10:09 | 7.82077 | 124.73227 | 23623 ft | 469 kts | 348° |
| 2026-04-16 10:10 | 7.85235 | 124.72575 | 23782 ft | 470 kts | 348° |
| 2026-04-16 10:10 | 7.88454 | 124.71911 | 23948 ft | 471 kts | 348° |
| 2026-04-16 10:10 | 7.91670 | 124.71246 | 24125 ft | 472 kts | 348° |
| 2026-04-16 10:10 | 7.94894 | 124.70580 | 24288 ft | 473 kts | 348° |
| 2026-04-16 10:11 | 7.98125 | 124.69914 | 24447 ft | 475 kts | 348° |
| 2026-04-16 10:11 | 8.01362 | 124.69251 | 24612 ft | 476 kts | 348° |
| 2026-04-16 10:11 | 8.04612 | 124.68579 | 24778 ft | 477 kts | 348° |
| 2026-04-16 10:11 | 8.07865 | 124.67903 | 24937 ft | 478 kts | 348° |
| 2026-04-16 10:12 | 8.11129 | 124.67225 | 25090 ft | 479 kts | 348° |
| 2026-04-16 10:12 | 8.14402 | 124.66546 | 25248 ft | 480 kts | 348° |
| 2026-04-16 10:12 | 8.17679 | 124.65866 | 25406 ft | 482 kts | 348° |
| 2026-04-16 10:12 | 8.20962 | 124.65186 | 25558 ft | 483 kts | 348° |
| 2026-04-16 10:13 | 8.24261 | 124.64504 | 25724 ft | 484 kts | 348° |
| 2026-04-16 10:13 | 8.27524 | 124.63828 | 25871 ft | 485 kts | 348° |
| 2026-04-16 10:13 | 8.30844 | 124.63141 | 26036 ft | 486 kts | 348° |
| 2026-04-16 10:13 | 8.34161 | 124.62454 | 26186 ft | 488 kts | 348° |
| 2026-04-16 10:14 | 8.37489 | 124.61762 | 26351 ft | 489 kts | 348° |
| 2026-04-16 10:14 | 8.40775 | 124.60849 | 26496 ft | 490 kts | 340° |
| 2026-04-16 10:14 | 8.43905 | 124.59492 | 26658 ft | 491 kts | 333° |
| 2026-04-16 10:14 | 8.46929 | 124.57887 | 26802 ft | 492 kts | 331° |
| 2026-04-16 10:15 | 8.49929 | 124.56199 | 26952 ft | 493 kts | 330° |
| 2026-04-16 10:15 | 8.52911 | 124.54475 | 27123 ft | 495 kts | 329° |
| 2026-04-16 10:15 | 8.55894 | 124.52732 | 27276 ft | 496 kts | 329° |
| 2026-04-16 10:15 | 8.58882 | 124.50986 | 27426 ft | 497 kts | 329° |
| 2026-04-16 10:16 | 8.61881 | 124.49239 | 27587 ft | 498 kts | 330° |
| 2026-04-16 10:16 | 8.64892 | 124.47492 | 27745 ft | 499 kts | 330° |
| 2026-04-16 10:16 | 8.67916 | 124.45743 | 27886 ft | 501 kts | 330° |
| 2026-04-16 10:16 | 8.70917 | 124.44010 | 28034 ft | 502 kts | 330° |
| 2026-04-16 10:17 | 8.73956 | 124.42256 | 28180 ft | 503 kts | 330° |
| 2026-04-16 10:17 | 8.77008 | 124.40494 | 28229 ft | 504 kts | 330° |
| 2026-04-16 10:17 | 8.80049 | 124.38737 | 28514 ft | 501 kts | 330° |
| 2026-04-16 10:17 | 8.83058 | 124.36998 | 28901 ft | 497 kts | 330° |
| 2026-04-16 10:18 | 8.86022 | 124.35285 | 29271 ft | 493 kts | 329° |
| 2026-04-16 10:18 | 8.89024 | 124.33548 | 29620 ft | 490 kts | 330° |
| 2026-04-16 10:18 | 8.91950 | 124.31865 | 29958 ft | 487 kts | 330° |
| 2026-04-16 10:18 | 8.94893 | 124.30175 | 30251 ft | 484 kts | 329° |
| 2026-04-16 10:19 | 8.97811 | 124.28485 | 30550 ft | 481 kts | 330° |
| 2026-04-16 10:19 | 9.00719 | 124.26799 | 30854 ft | 478 kts | 330° |
| 2026-04-16 10:19 | 9.03598 | 124.25130 | 31151 ft | 475 kts | 330° |
| 2026-04-16 10:19 | 9.06476 | 124.23459 | 31245 ft | 478 kts | 329° |
| 2026-04-16 10:20 | 9.12277 | 124.20072 | 31375 ft | 483 kts | 330° |
| 2026-04-16 10:20 | 9.18093 | 124.16685 | 31507 ft | 488 kts | 330° |
| 2026-04-16 10:21 | 9.24031 | 124.13265 | 31661 ft | 493 kts | 330° |
| 2026-04-16 10:21 | 9.27009 | 124.11547 | 31823 ft | 492 kts | 330° |
| 2026-04-16 10:21 | 9.29983 | 124.09829 | 32088 ft | 490 kts | 330° |
| 2026-04-16 10:22 | 9.32935 | 124.08119 | 32403 ft | 485 kts | 330° |
| 2026-04-16 10:22 | 9.35848 | 124.06429 | 32750 ft | 481 kts | 330° |
| 2026-04-16 10:22 | 9.38739 | 124.04751 | 33096 ft | 476 kts | 330° |
| 2026-04-16 10:22 | 9.41597 | 124.03099 | 33449 ft | 470 kts | 331° |
| 2026-04-16 10:23 | 9.44425 | 124.01468 | 33759 ft | 466 kts | 331° |
| 2026-04-16 10:23 | 9.47238 | 123.99847 | 33946 ft | 464 kts | 331° |
| 2026-04-16 10:23 | 9.50053 | 123.98228 | 34102 ft | 463 kts | 331° |
| 2026-04-16 10:23 | 9.52840 | 123.96616 | 34257 ft | 461 kts | 331° |
| 2026-04-16 10:24 | 9.55623 | 123.94997 | 34423 ft | 459 kts | 330° |
| 2026-04-16 10:24 | 9.58352 | 123.93407 | 34515 ft | 459 kts | 330° |
| 2026-04-16 10:24 | 9.63899 | 123.90182 | 34578 ft | 461 kts | 330° |
| 2026-04-16 10:25 | 9.69482 | 123.86915 | 34585 ft | 465 kts | 330° |
| 2026-04-16 10:25 | 9.75140 | 123.83606 | 34550 ft | 471 kts | 331° |
| 2026-04-16 10:26 | 9.80404 | 123.79663 | 34578 ft | 474 kts | 309° |
| 2026-04-16 10:26 | 9.82270 | 123.76914 | 34458 ft | 472 kts | 300° |
| 2026-04-16 10:26 | 9.83876 | 123.74012 | 34056 ft | 475 kts | 298° |
| 2026-04-16 10:27 | 9.85453 | 123.71033 | 33898 ft | 482 kts | 298° |
| 2026-04-16 10:27 | 9.87034 | 123.68025 | 33863 ft | 485 kts | 298° |
| 2026-04-16 10:27 | 9.90207 | 123.61977 | 33868 ft | 491 kts | 298° |
| 2026-04-16 10:28 | 9.93428 | 123.55829 | 33868 ft | 496 kts | 298° |
| 2026-04-16 10:28 | 9.96753 | 123.49654 | 33860 ft | 501 kts | 303° |
| 2026-04-16 10:29 | 10.01351 | 123.44323 | 33869 ft | 504 kts | 317° |
| 2026-04-16 10:29 | 10.06542 | 123.39495 | 33877 ft | 509 kts | 318° |
| 2026-04-16 10:30 | 10.11809 | 123.34637 | 33883 ft | 513 kts | 318° |
| 2026-04-16 10:30 | 10.17094 | 123.29764 | 33883 ft | 513 kts | 318° |
| 2026-04-16 10:31 | 10.22340 | 123.24924 | 33886 ft | 513 kts | 318° |
| 2026-04-16 10:31 | 10.27637 | 123.20037 | 33887 ft | 513 kts | 318° |
| 2026-04-16 10:32 | 10.32912 | 123.15170 | 33891 ft | 513 kts | 318° |
| 2026-04-16 10:32 | 10.38352 | 123.10503 | 33892 ft | 512 kts | 326° |
| 2026-04-16 10:33 | 10.44505 | 123.06947 | 33888 ft | 512 kts | 333° |
| 2026-04-16 10:33 | 10.50813 | 123.03592 | 33890 ft | 512 kts | 333° |
| 2026-04-16 10:34 | 10.57121 | 123.00248 | 33893 ft | 512 kts | 333° |
| 2026-04-16 10:34 | 10.63438 | 122.96901 | 33891 ft | 512 kts | 333° |
| 2026-04-16 10:35 | 10.69769 | 122.93547 | 33891 ft | 512 kts | 333° |
| 2026-04-16 10:35 | 10.76087 | 122.90198 | 33887 ft | 512 kts | 333° |
| 2026-04-16 10:36 | 10.82377 | 122.86864 | 33885 ft | 512 kts | 333° |
| 2026-04-16 10:36 | 10.88687 | 122.83517 | 33891 ft | 512 kts | 333° |
| 2026-04-16 10:37 | 10.95008 | 122.80162 | 33887 ft | 512 kts | 333° |
| 2026-04-16 10:37 | 11.01337 | 122.76801 | 33896 ft | 512 kts | 333° |
| 2026-04-16 10:38 | 11.07664 | 122.73440 | 33893 ft | 512 kts | 333° |
| 2026-04-16 10:38 | 11.13984 | 122.70081 | 33895 ft | 512 kts | 333° |
| 2026-04-16 10:39 | 11.20316 | 122.66714 | 33897 ft | 513 kts | 333° |
| 2026-04-16 10:39 | 11.26640 | 122.63349 | 33896 ft | 513 kts | 333° |
| 2026-04-16 10:40 | 11.32980 | 122.59975 | 33898 ft | 513 kts | 333° |
| 2026-04-16 10:40 | 11.39273 | 122.56624 | 33900 ft | 513 kts | 333° |
| 2026-04-16 10:41 | 11.45601 | 122.53252 | 33908 ft | 512 kts | 333° |
| 2026-04-16 10:41 | 11.51925 | 122.49890 | 33913 ft | 512 kts | 333° |
| 2026-04-16 10:42 | 11.58255 | 122.46526 | 33914 ft | 512 kts | 333° |
| 2026-04-16 10:42 | 11.64582 | 122.43167 | 33915 ft | 512 kts | 333° |
| 2026-04-16 10:43 | 11.70855 | 122.39814 | 33913 ft | 512 kts | 333° |
| 2026-04-16 10:43 | 11.77133 | 122.36440 | 33916 ft | 512 kts | 333° |
| 2026-04-16 10:44 | 11.83451 | 122.33057 | 33917 ft | 512 kts | 333° |
| 2026-04-16 10:44 | 11.89758 | 122.29682 | 33907 ft | 512 kts | 333° |
| 2026-04-16 10:45 | 11.96065 | 122.26307 | 33904 ft | 512 kts | 333° |
| 2026-04-16 10:45 | 12.02374 | 122.22930 | 33899 ft | 512 kts | 333° |
| 2026-04-16 10:46 | 12.08697 | 122.19542 | 33905 ft | 512 kts | 333° |
| 2026-04-16 10:46 | 12.14975 | 122.16184 | 33905 ft | 512 kts | 333° |
| 2026-04-16 10:47 | 12.21297 | 122.12798 | 33903 ft | 512 kts | 333° |
| 2026-04-16 10:47 | 12.27584 | 122.09425 | 33176 ft | 506 kts | 333° |
| 2026-04-16 10:48 | 12.30682 | 122.07768 | 32280 ft | 512 kts | 333° |
| 2026-04-16 10:48 | 12.33899 | 122.06046 | 31541 ft | 515 kts | 333° |
| 2026-04-16 10:48 | 12.37074 | 122.04343 | 30909 ft | 515 kts | 333° |
| 2026-04-16 10:48 | 12.40208 | 122.02660 | 30346 ft | 514 kts | 333° |
| 2026-04-16 10:49 | 12.43375 | 122.00958 | 30014 ft | 513 kts | 332° |
| 2026-04-16 10:49 | 12.46551 | 121.99249 | 29912 ft | 516 kts | 332° |
| 2026-04-16 10:49 | 12.52922 | 121.95825 | 29895 ft | 516 kts | 333° |
| 2026-04-16 10:50 | 12.59278 | 121.92398 | 29906 ft | 516 kts | 332° |
| 2026-04-16 10:50 | 12.65595 | 121.88989 | 29893 ft | 516 kts | 332° |
| 2026-04-16 10:51 | 12.71941 | 121.85567 | 29900 ft | 516 kts | 332° |
| 2026-04-16 10:51 | 12.78294 | 121.82143 | 29897 ft | 515 kts | 332° |
| 2026-04-16 10:52 | 12.84639 | 121.78722 | 29756 ft | 511 kts | 332° |
| 2026-04-16 10:52 | 12.87734 | 121.77055 | 28964 ft | 500 kts | 333° |
| 2026-04-16 10:52 | 12.90836 | 121.75390 | 27768 ft | 495 kts | 333° |
| 2026-04-16 10:53 | 12.93866 | 121.73761 | 26698 ft | 489 kts | 333° |
| 2026-04-16 10:53 | 12.96821 | 121.72170 | 25736 ft | 481 kts | 333° |
| 2026-04-16 10:53 | 12.99768 | 121.70581 | 24770 ft | 473 kts | 333° |
| 2026-04-16 10:53 | 13.02657 | 121.69020 | 23842 ft | 466 kts | 333° |
| 2026-04-16 10:54 | 13.05511 | 121.67482 | 22921 ft | 458 kts | 333° |
| 2026-04-16 10:54 | 13.08316 | 121.65975 | 21853 ft | 451 kts | 333° |
| 2026-04-16 10:54 | 13.10148 | 121.64989 | 21160 ft | 447 kts | 333° |
| 2026-04-16 10:54 | 13.12882 | 121.63515 | 20175 ft | 439 kts | 333° |
| 2026-04-16 10:55 | 13.16430 | 121.61598 | 18910 ft | 430 kts | 334° |
| 2026-04-16 10:55 | 13.18199 | 121.60638 | 18288 ft | 425 kts | 333° |
| 2026-04-16 10:55 | 13.20794 | 121.59216 | 17240 ft | 419 kts | 333° |
| 2026-04-16 10:55 | 13.23361 | 121.57813 | 16474 ft | 417 kts | 333° |
| 2026-04-16 10:56 | 13.25971 | 121.56517 | 16053 ft | 416 kts | 340° |
| 2026-04-16 10:56 | 13.28725 | 121.55650 | 15910 ft | 410 kts | 347° |
| 2026-04-16 10:56 | 13.31444 | 121.54976 | 15914 ft | 404 kts | 348° |
| 2026-04-16 10:56 | 13.34174 | 121.54337 | 15709 ft | 395 kts | 348° |
| 2026-04-16 10:57 | 13.36843 | 121.53729 | 14758 ft | 395 kts | 348° |
| 2026-04-16 10:57 | 13.39523 | 121.53113 | 13947 ft | 392 kts | 348° |
| 2026-04-16 10:57 | 13.42177 | 121.52512 | 12839 ft | 389 kts | 348° |
| 2026-04-16 10:57 | 13.44817 | 121.51917 | 11748 ft | 386 kts | 348° |
| 2026-04-16 10:58 | 13.47179 | 121.51383 | 10916 ft | 382 kts | 348° |
| 2026-04-16 10:58 | 13.49672 | 121.50820 | 10324 ft | 382 kts | 348° |
| 2026-04-16 10:58 | 13.52279 | 121.50232 | 9956 ft | 383 kts | 348° |
| 2026-04-16 10:58 | 13.54891 | 121.49638 | 10031 ft | 386 kts | 348° |
| 2026-04-16 10:59 | 13.57496 | 121.49046 | 10334 ft | 379 kts | 348° |
| 2026-04-16 10:59 | 13.60088 | 121.48461 | 10644 ft | 382 kts | 348° |
| 2026-04-16 10:59 | 13.62689 | 121.47873 | 10867 ft | 384 kts | 348° |
| 2026-04-16 10:59 | 13.65307 | 121.47281 | 10983 ft | 385 kts | 348° |
| 2026-04-16 11:00 | 13.67940 | 121.46676 | 10911 ft | 386 kts | 348° |
| 2026-04-16 11:00 | 13.70504 | 121.46085 | 10912 ft | 369 kts | 348° |
| 2026-04-16 11:00 | 13.72956 | 121.45524 | 10917 ft | 352 kts | 348° |
| 2026-04-16 11:00 | 13.75267 | 121.44996 | 10917 ft | 336 kts | 348° |
| 2026-04-16 11:01 | 13.77508 | 121.44485 | 10925 ft | 326 kts | 348° |
| 2026-04-16 11:01 | 13.79723 | 121.43983 | 10919 ft | 327 kts | 348° |
| 2026-04-16 11:01 | 13.82001 | 121.43466 | 10911 ft | 344 kts | 348° |
| 2026-04-16 11:01 | 13.84399 | 121.42925 | 10904 ft | 360 kts | 348° |
| 2026-04-16 11:02 | 13.86901 | 121.42358 | 10903 ft | 375 kts | 348° |
| 2026-04-16 11:02 | 13.89456 | 121.41780 | 10905 ft | 387 kts | 348° |
| 2026-04-16 11:02 | 13.92139 | 121.41172 | 10912 ft | 391 kts | 348° |
| 2026-04-16 11:02 | 13.94762 | 121.40576 | 10914 ft | 392 kts | 348° |
| 2026-04-16 11:03 | 13.97414 | 121.39975 | 10867 ft | 387 kts | 348° |
| 2026-04-16 11:03 | 14.00007 | 121.39386 | 10653 ft | 375 kts | 348° |
| 2026-04-16 11:03 | 14.04972 | 121.38257 | 10210 ft | 355 kts | 348° |
| 2026-04-16 11:04 | 14.07346 | 121.37725 | 10005 ft | 347 kts | 349° |
| 2026-04-16 11:04 | 14.09680 | 121.37214 | 9815 ft | 335 kts | 349° |
| 2026-04-16 11:04 | 14.11881 | 121.36724 | 9573 ft | 313 kts | 349° |
| 2026-04-16 11:04 | 14.13935 | 121.36262 | 9342 ft | 293 kts | 349° |
| 2026-04-16 11:05 | 14.15895 | 121.35817 | 9121 ft | 289 kts | 348° |
| 2026-04-16 11:05 | 14.17868 | 121.35354 | 8872 ft | 291 kts | 348° |
| 2026-04-16 11:05 | 14.19834 | 121.34894 | 8626 ft | 288 kts | 348° |
| 2026-04-16 11:05 | 14.21785 | 121.34447 | 8382 ft | 287 kts | 349° |
| 2026-04-16 11:06 | 14.23731 | 121.34005 | 8136 ft | 286 kts | 348° |
| 2026-04-16 11:06 | 14.25667 | 121.33561 | 7894 ft | 285 kts | 348° |
| 2026-04-16 11:06 | 14.27601 | 121.33118 | 7656 ft | 284 kts | 348° |
| 2026-04-16 11:06 | 14.29520 | 121.32678 | 7418 ft | 283 kts | 348° |
| 2026-04-16 11:07 | 14.31440 | 121.32238 | 7189 ft | 282 kts | 348° |
| 2026-04-16 11:07 | 14.33349 | 121.31803 | 6950 ft | 280 kts | 348° |
| 2026-04-16 11:07 | 14.35249 | 121.31371 | 6714 ft | 279 kts | 348° |
| 2026-04-16 11:07 | 14.37137 | 121.30940 | 6481 ft | 278 kts | 348° |
| 2026-04-16 11:08 | 14.39022 | 121.30511 | 6239 ft | 277 kts | 348° |
| 2026-04-16 11:08 | 14.40889 | 121.30086 | 6056 ft | 271 kts | 348° |
| 2026-04-16 11:08 | 14.42695 | 121.29673 | 5929 ft | 260 kts | 348° |
| 2026-04-16 11:08 | 14.44429 | 121.29276 | 5807 ft | 250 kts | 348° |
| 2026-04-16 11:09 | 14.46116 | 121.28892 | 5695 ft | 249 kts | 348° |
| 2026-04-16 11:09 | 14.47814 | 121.28508 | 5524 ft | 250 kts | 348° |
| 2026-04-16 11:09 | 14.49472 | 121.27970 | 5374 ft | 252 kts | 332° |
| 2026-04-16 11:09 | 14.50817 | 121.26836 | 5209 ft | 251 kts | 314° |
| 2026-04-16 11:10 | 14.52011 | 121.25520 | 5092 ft | 250 kts | 314° |
| 2026-04-16 11:10 | 14.53225 | 121.24202 | 4957 ft | 256 kts | 314° |
| 2026-04-16 11:10 | 14.54442 | 121.22881 | 4970 ft | 252 kts | 315° |
| 2026-04-16 11:10 | 14.55654 | 121.21574 | 4930 ft | 251 kts | 315° |
| 2026-04-16 11:11 | 14.56862 | 121.20268 | 4755 ft | 252 kts | 315° |
| 2026-04-16 11:11 | 14.58073 | 121.18959 | 4641 ft | 251 kts | 316° |
| 2026-04-16 11:11 | 14.59026 | 121.17452 | 4408 ft | 253 kts | 286° |
| 2026-04-16 11:11 | 14.59019 | 121.15697 | 4113 ft | 243 kts | 250° |
| 2026-04-16 11:12 | 14.58224 | 121.14205 | 3756 ft | 233 kts | 236° |
| 2026-04-16 11:12 | 14.57362 | 121.12865 | 3502 ft | 214 kts | 236° |
| 2026-04-16 11:12 | 14.56545 | 121.11657 | 3197 ft | 203 kts | 234° |
| 2026-04-16 11:12 | 14.55765 | 121.10461 | 2940 ft | 194 kts | 236° |
| 2026-04-16 11:13 | 14.55059 | 121.09319 | 2603 ft | 189 kts | 237° |
| 2026-04-16 11:13 | 14.54372 | 121.08158 | 2164 ft | 190 kts | 237° |
| 2026-04-16 11:13 | 14.53697 | 121.06984 | 2001 ft | 191 kts | 237° |
| 2026-04-16 11:13 | 14.53011 | 121.05783 | 2003 ft | 209 kts | 237° |
| 2026-04-16 11:14 | 14.52210 | 121.04378 | 1879 ft | 250 kts | 238° |
| 2026-04-16 11:14 | 14.51265 | 121.02690 | 1692 ft | 294 kts | 239° |
| 2026-04-16 11:14 | 14.50177 | 121.00762 | 1587 ft | 322 kts | 238° |
| 2026-04-16 11:14 | 14.49092 | 120.98835 | 1640 ft | 293 kts | 238° |
| 2026-04-16 11:15 | 14.48125 | 120.97106 | 1882 ft | 270 kts | 238° |
| 2026-04-16 11:15 | 14.47193 | 120.95434 | 1968 ft | 268 kts | 239° |
| 2026-04-16 11:15 | 14.46178 | 120.93839 | 1967 ft | 263 kts | 226° |
| 2026-04-16 11:15 | 14.44703 | 120.92800 | 1994 ft | 256 kts | 198° |
| 2026-04-16 11:16 | 14.42955 | 120.92625 | 2165 ft | 257 kts | 170° |
| 2026-04-16 11:16 | 14.41313 | 120.93361 | 2555 ft | 262 kts | 142° |
| 2026-04-16 11:16 | 14.40065 | 120.94718 | 3133 ft | 262 kts | 129° |
| 2026-04-16 11:16 | 14.38950 | 120.96217 | 3654 ft | 265 kts | 127° |
| 2026-04-16 11:17 | 14.37854 | 120.97746 | 3927 ft | 266 kts | 123° |
| 2026-04-16 11:17 | 14.37173 | 120.99501 | 3980 ft | 265 kts | 98° |
| 2026-04-16 11:17 | 14.37331 | 121.01382 | 3969 ft | 265 kts | 71° |
| 2026-04-16 11:17 | 14.38159 | 121.03085 | 3979 ft | 267 kts | 59° |
| 2026-04-16 11:18 | 14.39161 | 121.04708 | 3983 ft | 269 kts | 57° |
| 2026-04-16 11:18 | 14.40171 | 121.06301 | 3962 ft | 269 kts | 57° |
| 2026-04-16 11:18 | 14.41210 | 121.07936 | 4003 ft | 269 kts | 57° |
| 2026-04-16 11:18 | 14.42221 | 121.09529 | 4003 ft | 269 kts | 57° |
| 2026-04-16 11:19 | 14.43258 | 121.11170 | 3989 ft | 269 kts | 57° |
| 2026-04-16 11:19 | 14.44158 | 121.12599 | 3992 ft | 269 kts | 57° |
| 2026-04-16 11:19 | 14.45176 | 121.14218 | 4005 ft | 269 kts | 57° |
| 2026-04-16 11:19 | 14.46193 | 121.15838 | 3992 ft | 269 kts | 57° |
| 2026-04-16 11:20 | 14.47208 | 121.17459 | 3990 ft | 269 kts | 57° |
| 2026-04-16 11:20 | 14.48223 | 121.19083 | 4010 ft | 269 kts | 57° |
| 2026-04-16 11:20 | 14.49236 | 121.20707 | 3989 ft | 269 kts | 57° |
| 2026-04-16 11:20 | 14.50248 | 121.22330 | 3989 ft | 269 kts | 57° |
| 2026-04-16 11:21 | 14.51261 | 121.23958 | 4002 ft | 269 kts | 57° |
| 2026-04-16 11:21 | 14.52271 | 121.25584 | 3993 ft | 269 kts | 57° |
| 2026-04-16 11:21 | 14.53277 | 121.27209 | 3990 ft | 269 kts | 57° |
| 2026-04-16 11:21 | 14.54283 | 121.28832 | 4007 ft | 269 kts | 58° |
| 2026-04-16 11:22 | 14.55291 | 121.30458 | 4008 ft | 269 kts | 57° |
| 2026-04-16 11:22 | 14.56415 | 121.31986 | 3993 ft | 268 kts | 45° |
| 2026-04-16 11:22 | 14.57921 | 121.33105 | 3997 ft | 268 kts | 24° |
| 2026-04-16 11:22 | 14.59734 | 121.33502 | 4001 ft | 269 kts | 358° |
| 2026-04-16 11:23 | 14.61524 | 121.32999 | 3993 ft | 269 kts | 330° |
| 2026-04-16 11:23 | 14.62881 | 121.31689 | 3988 ft | 271 kts | 301° |
| 2026-04-16 11:23 | 14.63401 | 121.29862 | 3917 ft | 272 kts | 269° |
| 2026-04-16 11:23 | 14.62954 | 121.27980 | 3811 ft | 272 kts | 246° |
| 2026-04-16 11:24 | 14.62172 | 121.26159 | 3681 ft | 275 kts | 247° |
| 2026-04-16 11:24 | 14.61495 | 121.24435 | 3416 ft | 274 kts | 249° |
| 2026-04-16 11:24 | 14.60848 | 121.22586 | 2867 ft | 275 kts | 251° |
| 2026-04-16 11:24 | 14.60230 | 121.20723 | 2571 ft | 273 kts | 251° |
| 2026-04-16 11:25 | 14.59619 | 121.18868 | 2505 ft | 273 kts | 250° |
| 2026-04-16 11:25 | 14.58924 | 121.17051 | 2502 ft | 273 kts | 243° |
| 2026-04-16 11:25 | 14.57996 | 121.15349 | 2448 ft | 268 kts | 239° |
| 2026-04-16 11:25 | 14.57142 | 121.13699 | 2267 ft | 252 kts | 244° |
| 2026-04-16 11:26 | 14.56373 | 121.12144 | 2081 ft | 234 kts | 239° |
| 2026-04-16 11:26 | 14.55593 | 121.10756 | 1833 ft | 221 kts | 240° |
| 2026-04-16 11:26 | 14.54890 | 121.09399 | 1553 ft | 209 kts | 239° |
| 2026-04-16 11:26 | 14.54185 | 121.08108 | 1252 ft | 204 kts | 238° |
| 2026-04-16 11:27 | 14.53517 | 121.06858 | 995 ft | 194 kts | 240° |
| 2026-04-16 11:27 | 14.52970 | 121.05844 | 781 ft | 186 kts | 240° |
| 2026-04-16 11:27 | 14.52421 | 121.04820 | 570 ft | 180 kts | 241° |
| 2026-04-16 11:27 | 14.51828 | 121.03718 | 318 ft | 171 kts | 242° |
| 2026-04-16 11:28 | 14.51265 | 121.02678 | 87 ft | 162 kts | 238° |
| 2026-04-16 11:28 | 14.50739 | 121.01734 | 66 ft | 135 kts | 241° |
| 2026-04-16 11:28 | 14.50468 | 121.01237 | 66 ft | 21 kts | 240° |
| 2026-04-16 11:28 | 14.50462 | 121.01226 | 65 ft | 0 kts | 240° |
| 2026-04-16 11:29 | 14.50456 | 121.01215 | 66 ft | 7 kts | 240° |
| 2026-04-16 11:29 | 14.50396 | 121.01106 | 67 ft | 27 kts | 239° |
| 2026-04-16 11:29 | 14.50304 | 121.00920 | 66 ft | 18 kts | 254° |
| 2026-04-16 11:30 | 14.50282 | 121.00787 | 67 ft | 0 kts | 263° |
| 2026-04-16 11:30 | 14.50281 | 121.00779 | 66 ft | 6 kts | 263° |
| 2026-04-16 11:30 | 14.50270 | 121.00687 | 69 ft | 3 kts | 262° |
| 2026-04-16 11:30 | 14.50265 | 121.00652 | 66 ft | 15 kts | 262° |
| 2026-04-16 11:31 | 14.50244 | 121.00558 | 63 ft | 7 kts | 244° |
| 2026-04-16 11:31 | 14.50227 | 121.00527 | 64 ft | 14 kts | 241° |
| 2026-04-16 11:31 | 14.50166 | 121.00416 | 65 ft | 15 kts | 240° |
| 2026-04-16 11:31 | 14.50152 | 121.00355 | 64 ft | 14 kts | 289° |
| 2026-04-16 11:32 | 14.50213 | 121.00303 | 66 ft | 18 kts | 330° |
| 2026-04-16 11:32 | 14.50252 | 121.00285 | 65 ft | 7 kts | 343° |
| 2026-04-16 11:32 | 14.50327 | 121.00281 | 66 ft | 14 kts | 4° |
| 2026-04-16 11:32 | 14.50405 | 121.00288 | 68 ft | 0 kts | 5° |
| 2026-04-16 11:33 | 14.50407 | 121.00288 | 69 ft | 2 kts | 5° |
| 2026-04-16 11:33 | 14.50426 | 121.00308 | 66 ft | 4 kts | 72° |
| 2026-04-16 11:33 | 14.50426 | 121.00345 | 66 ft | 0 kts | 93° |
| 2026-04-16 11:33 | 14.50425 | 121.00359 | 67 ft | 0 kts | 93° |